Kezdőlap
METAR-TAF:

METAR-TAF

Repülőterek :

Nuuk repülőtér

Nuuk, Grönland

földrajzi szélesség: 64-10N, földrajzi hosszúság: 051-45W, magasság: 80 m

Jelenlegi meteorológiai megfigyelések

A jelentés 26 perccel ezelõtt készült, 13:50 UTC
Északkeleti szél 8 kt
Hőmérséklet -10°C
Páratartalom 61%
Légköri nyomás 995 hPa
Látótávolság 10 km, vagy több
Kevés felhő 2500 lábon
Szórványos felhőzet 18000 lábon

METAR: BGGH 251350Z 04008KT 9999 FEW025 SCT180 M10/M16 Q0995

Idő: 11:16 (14:16 UTC)

Előrejelzés

A jelentés 3 órával és 17 perccel ezelõtt készült, 10:59 UTC
Az előrejelzés 25-én 12 óra UTC és 25-én 21 óra UTC között érvényes
Kelet-északkeleti szél 10 kt
Látótávolság 10 km, vagy több
Kevés felhő 18000 lábon
Valószínűség 40%
25-én 12 óra UTC és 25-én 14 óra UTC között
Látótávolság: 2500 m
Szakadozott felhőzet 1200 lábon
enyhe hózápor

TAF: BGGH 251059Z 2512/2521 06010KT 9999 FEW180 PROB40 2512/2514 2500 -SHSN BKN012

Meteorológiai megfigyelések és előrejelzések több, mint 4000 repülőtéren (METAR és TAF jelentéseket).

A térképen piros és sárga pontok jelzik az elérhető meteorológiai állomásokat.

Mozgassa az egeret a pont fölött, hogy megjelenjen az állomás neve.

Azután kattintson az időjárási megfigyelések és előrejelzések megtekintéséhez.

A térkép megváltoztatása: kattintson a fekete keresztel jelölt zöld gombra ráközelítéshez, a vonallal jelölt zöld gombra távolításhoz, vagy a zöld nyilakra a szomszédos térképek eléréséhez.


METAR-TAF: